Time;durP1;ratioP1;P1;durP2;ratioP2;P2;SDS_P1;SDS_P2;PMS_P1;PMS_P2;Temp;Humidity;BMP_temperature;BMP_pressure;BME280_temperature;BME280_humidity;BME280_pressure;Samples;Min_cycle;Max_cycle;Signal;HPM_P1;HPM_P2
2021/10/03 00:00:12;;;;;;;1.00;0.90;;;19.50;62.90;;;;;;3103129;28;20300;-89
2021/10/03 00:01:44;;;;;;;1.20;1.00;;;19.50;62.90;;;;;;3099419;28;20105;-88
2021/10/03 00:03:22;;;;;;;1.73;0.90;;;19.50;62.90;;;;;;3091165;28;20205;-88
2021/10/03 00:04:54;;;;;;;1.27;1.00;;;19.50;62.90;;;;;;3098687;28;20046;-88
2021/10/03 00:06:25;;;;;;;2.40;1.20;;;19.50;62.90;;;;;;3099155;28;20104;-88
2021/10/03 00:07:59;;;;;;;1.40;1.20;;;19.50;62.90;;;;;;3098940;28;20166;-88
2021/10/03 00:09:30;;;;;;;1.10;1.00;;;19.50;62.90;;;;;;3097972;28;20057;-88
2021/10/03 00:11:02;;;;;;;0.98;0.88;;;19.50;62.90;;;;;;3099369;28;20057;-89
2021/10/03 00:12:34;;;;;;;1.10;1.00;;;19.50;62.90;;;;;;3104645;28;20050;-88
2021/10/03 00:14:05;;;;;;;1.45;1.20;;;19.50;62.80;;;;;;3110251;28;20092;-88
2021/10/03 00:15:38;;;;;;;0.90;0.90;;;19.50;62.90;;;;;;3105950;28;20050;-88
2021/10/03 00:17:09;;;;;;;1.55;1.15;;;19.50;62.90;;;;;;3099149;28;20057;-88
2021/10/03 00:18:43;;;;;;;1.10;1.00;;;19.50;62.80;;;;;;3090757;28;20046;-88
2021/10/03 00:20:15;;;;;;;1.58;1.20;;;19.50;62.90;;;;;;3086584;28;20058;-88
2021/10/03 00:21:46;;;;;;;1.35;1.25;;;19.50;62.90;;;;;;3086851;28;20504;-88
2021/10/03 00:23:18;;;;;;;1.52;1.10;;;19.50;63.00;;;;;;3086874;28;20511;-88
2021/10/03 00:24:50;;;;;;;1.42;1.02;;;19.50;62.90;;;;;;3086098;28;20467;-88
2021/10/03 00:26:22;;;;;;;0.85;0.85;;;19.50;62.90;;;;;;3086943;28;20055;-88
2021/10/03 00:27:54;;;;;;;1.30;1.10;;;19.50;63.00;;;;;;3086695;28;20105;-89
2021/10/03 00:29:26;;;;;;;1.20;1.10;;;19.50;63.00;;;;;;3120648;22;20046;-85
2021/10/03 00:30:59;;;;;;;1.10;1.00;;;19.50;62.90;;;;;;3116096;28;20046;-84
2021/10/03 00:32:30;;;;;;;1.20;1.00;;;19.50;62.90;;;;;;3116868;28;20092;-84
2021/10/03 00:34:03;;;;;;;0.90;0.90;;;19.50;63.00;;;;;;3132847;28;20045;-84
2021/10/03 00:35:36;;;;;;;1.20;1.00;;;19.50;62.90;;;;;;3132088;28;20101;-85
2021/10/03 00:37:08;;;;;;;1.33;1.20;;;19.50;62.80;;;;;;3123066;28;20060;-85
2021/10/03 00:38:39;;;;;;;1.10;1.00;;;19.50;62.90;;;;;;3133682;28;20078;-82
2021/10/03 00:40:12;;;;;;;1.20;1.00;;;19.50;62.90;;;;;;3122980;28;20053;-82
2021/10/03 00:41:44;;;;;;;1.23;1.10;;;19.50;62.90;;;;;;3123131;28;20049;-82
2021/10/03 00:43:16;;;;;;;1.38;1.10;;;19.50;62.90;;;;;;3123668;28;20129;-82
2021/10/03 00:44:47;;;;;;;0.88;0.85;;;19.50;62.90;;;;;;3123264;28;20053;-82
2021/10/03 00:46:21;;;;;;;1.10;1.00;;;19.50;62.90;;;;;;3128265;28;20053;-82
2021/10/03 00:47:53;;;;;;;1.10;0.98;;;19.50;62.90;;;;;;3135337;28;20539;-83
2021/10/03 00:49:26;;;;;;;1.13;1.05;;;19.50;62.90;;;;;;3135007;28;20056;-83
2021/10/03 00:50:57;;;;;;;1.13;1.00;;;19.50;62.90;;;;;;3135549;28;20460;-82
2021/10/03 00:52:29;;;;;;;1.23;1.10;;;19.50;62.90;;;;;;3135313;28;20044;-82
2021/10/03 00:54:01;;;;;;;1.08;0.93;;;19.50;62.90;;;;;;3135285;28;20049;-82
2021/10/03 00:55:33;;;;;;;1.30;1.00;;;19.50;62.90;;;;;;3135989;28;20071;-82
2021/10/03 00:57:05;;;;;;;0.93;0.88;;;19.50;62.90;;;;;;3135937;28;20593;-82
2021/10/03 00:58:37;;;;;;;1.23;1.13;;;19.50;62.90;;;;;;3136067;28;20045;-82
2021/10/03 01:00:11;;;;;;;2.17;1.00;;;19.50;63.00;;;;;;3134176;28;20060;-82
2021/10/03 01:01:42;;;;;;;1.50;1.00;;;19.50;62.90;;;;;;3135767;28;20498;-82
2021/10/03 01:03:14;;;;;;;1.10;1.00;;;19.50;62.90;;;;;;3135796;28;20056;-83
2021/10/03 01:04:47;;;;;;;1.20;1.10;;;19.50;63.00;;;;;;3134958;28;20052;-81
2021/10/03 01:06:19;;;;;;;1.35;1.02;;;19.50;62.90;;;;;;3126813;28;20049;-82
2021/10/03 01:07:51;;;;;;;1.10;1.00;;;19.50;62.90;;;;;;3123380;28;20065;-82
2021/10/03 01:09:22;;;;;;;0.80;0.80;;;19.50;62.90;;;;;;3119979;28;20053;-82
2021/10/03 01:10:54;;;;;;;1.17;1.05;;;19.50;63.00;;;;;;3122604;28;20048;-82
2021/10/03 01:12:26;;;;;;;1.10;1.00;;;19.50;63.00;;;;;;3127680;28;20060;-82
2021/10/03 01:13:57;;;;;;;1.02;0.93;;;19.50;62.90;;;;;;3135000;28;20061;-82
2021/10/03 01:15:29;;;;;;;1.00;0.90;;;19.50;62.90;;;;;;3134673;28;20049;-82
2021/10/03 01:17:01;;;;;;;1.38;1.10;;;19.50;63.00;;;;;;3135061;28;20052;-82
2021/10/03 01:18:33;;;;;;;1.40;1.08;;;19.50;63.00;;;;;;3122211;28;20119;-83
2021/10/03 01:20:07;;;;;;;1.75;1.20;;;19.50;63.00;;;;;;3110093;28;20100;-82
2021/10/03 01:21:41;;;;;;;1.23;1.08;;;19.50;63.00;;;;;;3110937;28;20419;-82
2021/10/03 01:23:12;;;;;;;1.02;1.00;;;19.50;63.00;;;;;;3110361;28;20061;-82
2021/10/03 01:24:44;;;;;;;1.08;0.90;;;19.40;62.90;;;;;;3110296;28;20050;-83
2021/10/03 01:26:16;;;;;;;1.35;1.15;;;19.50;62.90;;;;;;3110906;28;20426;-82
2021/10/03 01:27:47;;;;;;;1.38;1.00;;;19.50;63.00;;;;;;3110488;28;20049;-82
2021/10/03 01:29:19;;;;;;;2.53;1.10;;;19.50;63.00;;;;;;3109697;28;20403;-82
2021/10/03 01:30:51;;;;;;;1.20;1.10;;;19.50;63.00;;;;;;3109791;28;20041;-82
2021/10/03 01:32:23;;;;;;;1.20;1.10;;;19.50;63.00;;;;;;3110603;28;20042;-83
2021/10/03 01:33:57;;;;;;;1.42;1.00;;;19.50;63.00;;;;;;3109885;28;20323;-82
2021/10/03 01:35:28;;;;;;;1.08;0.98;;;19.50;62.90;;;;;;3113073;28;20057;-82
2021/10/03 01:37:01;;;;;;;1.27;1.17;;;19.50;63.00;;;;;;3123962;28;20076;-82
2021/10/03 01:38:33;;;;;;;1.42;1.10;;;19.50;63.00;;;;;;3133675;28;20053;-83
2021/10/03 01:40:07;;;;;;;1.10;1.00;;;19.50;63.00;;;;;;3120176;28;20049;-82
2021/10/03 01:41:38;;;;;;;1.50;1.10;;;19.40;62.90;;;;;;3122828;28;20483;-82
2021/10/03 01:43:10;;;;;;;1.20;1.10;;;19.50;62.90;;;;;;3123141;28;20060;-82
2021/10/03 01:44:42;;;;;;;1.20;1.10;;;19.50;62.90;;;;;;3122315;28;20049;-82
2021/10/03 01:46:13;;;;;;;1.38;1.27;;;19.50;63.00;;;;;;3121791;28;20266;-83
2021/10/03 01:48:06;;;;;;;1.30;1.20;;;19.50;63.00;;;;;;3122807;28;20061;-82
2021/10/03 01:49:37;;;;;;;1.20;1.10;;;19.50;63.00;;;;;;3122076;28;20056;-81
2021/10/03 01:51:09;;;;;;;1.17;1.08;;;19.50;63.00;;;;;;3122828;28;20049;-82
2021/10/03 01:52:42;;;;;;;1.30;1.20;;;19.40;63.00;;;;;;3122505;28;20079;-81
2021/10/03 01:54:14;;;;;;;1.10;1.00;;;19.40;62.90;;;;;;3122187;28;20045;-82
2021/10/03 01:55:45;;;;;;;1.20;1.10;;;19.40;62.90;;;;;;3122611;28;20404;-82
2021/10/03 01:57:17;;;;;;;1.30;1.20;;;19.40;62.90;;;;;;3122938;28;20053;-82
2021/10/03 01:58:51;;;;;;;0.90;0.90;;;19.50;63.00;;;;;;3121927;28;20049;-82
2021/10/03 02:00:22;;;;;;;1.42;1.20;;;19.50;63.00;;;;;;3121190;28;20433;-82
2021/10/03 02:01:55;;;;;;;1.13;1.02;;;19.40;62.90;;;;;;3122411;28;20045;-82
2021/10/03 02:03:26;;;;;;;1.40;1.30;;;19.50;63.00;;;;;;3122906;28;20098;-82
2021/10/03 02:04:58;;;;;;;1.33;1.23;;;19.50;63.00;;;;;;3121632;28;20418;-82
2021/10/03 02:06:30;;;;;;;1.30;1.20;;;19.40;62.90;;;;;;3122163;28;20058;-82
2021/10/03 02:08:03;;;;;;;1.40;1.30;;;19.50;63.00;;;;;;3122723;28;20057;-82
2021/10/03 02:09:35;;;;;;;1.15;1.05;;;19.50;63.00;;;;;;3118959;28;20054;-82
2021/10/03 02:11:05;;;;;;;1.20;1.10;;;19.50;63.00;;;;;;3122122;28;20119;-82
2021/10/03 02:12:37;;;;;;;1.20;1.10;;;19.50;63.00;;;;;;3128308;28;20052;-82
2021/10/03 02:14:09;;;;;;;1.67;1.30;;;19.50;63.00;;;;;;3134512;28;20041;-82
2021/10/03 02:15:43;;;;;;;1.30;1.20;;;19.40;62.90;;;;;;3133750;28;20048;-82
2021/10/03 02:17:14;;;;;;;1.42;1.33;;;19.50;63.00;;;;;;3134555;28;20057;-83
2021/10/03 02:18:46;;;;;;;1.55;1.20;;;19.50;63.00;;;;;;3117538;28;20057;-82
2021/10/03 02:20:17;;;;;;;1.27;1.13;;;19.50;63.00;;;;;;3110148;28;20054;-82
2021/10/03 02:21:49;;;;;;;1.85;1.42;;;19.50;63.00;;;;;;3110084;28;20054;-82
2021/10/03 02:23:22;;;;;;;1.30;1.20;;;19.50;63.00;;;;;;3109863;28;20426;-82
2021/10/03 02:24:56;;;;;;;1.20;1.10;;;19.50;63.00;;;;;;3109886;28;20104;-82
2021/10/03 02:26:29;;;;;;;1.42;1.33;;;19.50;63.00;;;;;;3097370;28;20468;-82
2021/10/03 02:28:00;;;;;;;1.23;1.10;;;19.50;63.00;;;;;;3105741;28;20054;-81
2021/10/03 02:29:31;;;;;;;1.33;1.23;;;19.50;63.00;;;;;;3108749;28;20042;-83
2021/10/03 02:31:07;;;;;;;1.30;1.20;;;19.50;63.00;;;;;;3108836;28;20450;-82
2021/10/03 02:32:39;;;;;;;1.33;1.23;;;19.40;62.90;;;;;;3109690;28;20140;-82
2021/10/03 02:34:10;;;;;;;1.27;1.10;;;19.40;62.90;;;;;;3108810;28;20457;-81
2021/10/03 02:35:42;;;;;;;1.30;1.20;;;19.50;63.00;;;;;;3113965;28;20049;-82
2021/10/03 02:37:14;;;;;;;1.20;1.10;;;19.40;63.00;;;;;;3125208;28;20037;-83
2021/10/03 02:38:47;;;;;;;1.35;1.25;;;19.50;63.00;;;;;;3130695;28;20056;-82
2021/10/03 02:40:19;;;;;;;1.55;1.30;;;19.50;63.00;;;;;;3113671;28;20107;-82
2021/10/03 02:41:50;;;;;;;1.40;1.05;;;19.50;63.00;;;;;;3121833;28;20504;-82
2021/10/03 02:43:22;;;;;;;1.40;1.30;;;19.50;63.00;;;;;;3122241;28;20049;-82
2021/10/03 02:44:54;;;;;;;1.48;1.30;;;19.50;63.00;;;;;;3121149;28;20049;-82
2021/10/03 02:46:25;;;;;;;1.45;1.30;;;19.50;63.00;;;;;;3120865;28;20119;-82
2021/10/03 02:47:57;;;;;;;1.52;1.42;;;19.50;63.00;;;;;;3121927;28;20544;-81
2021/10/03 02:49:28;;;;;;;1.42;1.33;;;19.40;62.90;;;;;;3121621;28;20080;-82
2021/10/03 02:51:00;;;;;;;1.70;1.35;;;19.50;63.00;;;;;;3121647;28;20496;-82
2021/10/03 02:52:33;;;;;;;1.48;1.35;;;19.50;63.00;;;;;;3121603;28;20054;-82
2021/10/03 02:54:06;;;;;;;1.58;1.48;;;19.40;63.00;;;;;;3121355;28;20045;-82
2021/10/03 02:55:37;;;;;;;1.25;1.15;;;19.40;63.00;;;;;;3122217;28;20052;-82
2021/10/03 02:57:09;;;;;;;1.38;1.17;;;19.40;63.00;;;;;;3121896;28;20111;-82
2021/10/03 02:58:41;;;;;;;1.45;1.35;;;19.40;63.00;;;;;;3121419;28;20060;-81
2021/10/03 03:00:14;;;;;;;1.40;1.30;;;19.40;63.00;;;;;;3120892;28;20049;-82
2021/10/03 03:01:45;;;;;;;1.65;1.20;;;19.40;62.90;;;;;;3121761;28;20620;-82
2021/10/03 03:03:17;;;;;;;1.38;1.27;;;19.40;63.00;;;;;;3122225;28;20057;-84
2021/10/03 03:04:49;;;;;;;1.33;1.23;;;19.40;63.00;;;;;;3121347;28;20041;-82
2021/10/03 03:06:20;;;;;;;1.35;1.10;;;19.40;63.00;;;;;;3122684;28;20517;-82
2021/10/03 03:07:52;;;;;;;1.20;1.10;;;19.50;63.00;;;;;;3122033;28;20057;-82
2021/10/03 03:09:25;;;;;;;1.75;1.30;;;19.40;63.00;;;;;;3118626;28;20507;-82
2021/10/03 03:10:57;;;;;;;1.20;1.10;;;19.40;63.00;;;;;;3122777;28;20046;-82
2021/10/03 03:12:29;;;;;;;1.55;1.17;;;19.40;63.00;;;;;;3129828;28;20049;-82
2021/10/03 03:14:00;;;;;;;1.30;1.20;;;19.40;63.00;;;;;;3136321;28;20502;-82
2021/10/03 03:15:31;;;;;;;1.45;1.35;;;19.40;63.00;;;;;;3136038;28;20041;-82
2021/10/03 03:17:13;;;;;;;1.40;1.30;;;19.40;63.00;;;;;;3136701;28;20055;-83
2021/10/03 03:18:45;;;;;;;1.25;1.15;;;19.40;62.90;;;;;;3128202;28;20054;-82
2021/10/03 03:20:17;;;;;;;1.27;1.17;;;19.40;63.00;;;;;;3123915;28;20057;-82
2021/10/03 03:21:49;;;;;;;1.40;1.30;;;19.40;62.90;;;;;;3124335;28;20049;-82
2021/10/03 03:23:21;;;;;;;1.33;1.23;;;19.50;63.00;;;;;;3124355;28;20107;-82
2021/10/03 03:24:54;;;;;;;1.80;1.45;;;19.40;63.00;;;;;;3123861;28;20045;-82
2021/10/03 03:26:25;;;;;;;1.63;1.33;;;19.40;63.00;;;;;;3123878;28;20057;-82
2021/10/03 03:27:56;;;;;;;1.60;1.50;;;19.40;63.00;;;;;;3124090;28;20403;-82
2021/10/03 03:29:28;;;;;;;1.30;1.20;;;19.40;63.00;;;;;;3123286;28;20048;-82
2021/10/03 03:30:59;;;;;;;1.40;1.20;;;19.40;63.10;;;;;;3122887;28;20049;-82
2021/10/03 03:32:31;;;;;;;1.30;1.20;;;19.40;63.00;;;;;;3123737;28;20050;-82
2021/10/03 03:34:03;;;;;;;1.50;1.40;;;19.50;63.10;;;;;;3123310;28;20122;-82
2021/10/03 03:35:34;;;;;;;1.55;1.30;;;19.50;63.00;;;;;;3124206;28;20046;-82
2021/10/03 03:37:05;;;;;;;1.63;1.30;;;19.40;63.00;;;;;;3125499;28;20184;-82
2021/10/03 03:38:36;;;;;;;1.20;1.10;;;19.40;63.00;;;;;;3134695;28;20045;-82
2021/10/03 03:40:11;;;;;;;1.55;1.33;;;19.40;63.00;;;;;;3122470;28;20052;-82
2021/10/03 03:41:43;;;;;;;1.75;1.50;;;19.40;63.00;;;;;;3123899;28;20068;-82
2021/10/03 03:43:15;;;;;;;1.63;1.40;;;19.50;63.00;;;;;;3123952;28;20391;-82
2021/10/03 03:44:46;;;;;;;1.52;1.40;;;19.40;63.00;;;;;;3123143;28;20049;-82
2021/10/03 03:46:18;;;;;;;1.50;1.40;;;19.50;63.00;;;;;;3122941;28;20056;-82
2021/10/03 03:47:50;;;;;;;1.40;1.30;;;19.40;63.00;;;;;;3124088;28;20053;-82
2021/10/03 03:49:25;;;;;;;1.48;1.38;;;19.40;63.00;;;;;;3123498;28;20056;-83
2021/10/03 03:50:56;;;;;;;1.40;1.30;;;19.40;63.00;;;;;;3123223;28;20050;-82
2021/10/03 03:52:27;;;;;;;1.30;1.20;;;19.40;63.00;;;;;;3123686;28;20419;-82
2021/10/03 03:53:59;;;;;;;1.50;1.40;;;19.40;63.00;;;;;;3123288;28;20041;-82
2021/10/03 03:55:32;;;;;;;1.17;1.08;;;19.40;63.00;;;;;;3123496;28;20053;-81
2021/10/03 03:57:04;;;;;;;1.30;1.20;;;19.40;63.00;;;;;;3123490;28;20060;-82
2021/10/03 03:58:36;;;;;;;1.40;1.30;;;19.40;63.00;;;;;;3123835;28;20487;-82
2021/10/03 04:00:09;;;;;;;1.20;1.10;;;19.40;63.00;;;;;;3133675;28;20056;-82
2021/10/03 04:01:41;;;;;;;1.50;1.40;;;19.40;63.00;;;;;;3135709;28;20048;-82
2021/10/03 04:03:12;;;;;;;1.60;1.50;;;19.50;63.00;;;;;;3135830;28;20249;-82
2021/10/03 04:04:44;;;;;;;1.33;1.23;;;19.40;63.00;;;;;;3135572;28;20095;-82
2021/10/03 04:06:16;;;;;;;1.50;1.40;;;19.40;63.00;;;;;;3135596;28;20143;-82
2021/10/03 04:07:48;;;;;;;2.15;1.50;;;19.40;63.10;;;;;;3135383;28;20053;-82
2021/10/03 04:09:19;;;;;;;2.08;1.33;;;19.40;63.10;;;;;;3132125;28;20045;-82
2021/10/03 04:10:53;;;;;;;1.48;1.25;;;19.40;63.00;;;;;;3135653;28;20406;-82
2021/10/03 04:12:23;;;;;;;1.33;1.13;;;19.40;63.20;;;;;;3139822;28;20059;-82
2021/10/03 04:13:55;;;;;;;1.40;1.30;;;19.40;63.10;;;;;;3147630;28;20053;-82
2021/10/03 04:15:26;;;;;;;1.40;1.30;;;19.40;63.10;;;;;;3147383;28;20063;-82
2021/10/03 04:16:57;;;;;;;1.40;1.30;;;19.40;63.10;;;;;;3147985;28;20045;-83
2021/10/03 04:18:29;;;;;;;1.30;1.20;;;19.40;63.10;;;;;;3135901;28;20056;-82
2021/10/03 04:20:01;;;;;;;1.40;1.30;;;19.40;63.00;;;;;;3122021;28;20046;-82
2021/10/03 04:21:32;;;;;;;1.60;1.45;;;19.50;63.10;;;;;;3123214;28;20486;-82
2021/10/03 04:23:04;;;;;;;1.33;1.23;;;19.40;63.00;;;;;;3121792;28;20049;-82
2021/10/03 04:24:35;;;;;;;1.45;1.27;;;19.40;63.00;;;;;;3122652;28;20044;-85
2021/10/03 04:26:08;;;;;;;1.70;1.60;;;19.40;63.00;;;;;;3123268;28;20045;-82
2021/10/03 04:27:39;;;;;;;;;;;19.40;63.10;;;;;;3124093;28;20049;-82
2021/10/03 04:29:11;;;;;;;1.30;1.20;;;19.40;63.10;;;;;;3122419;28;20508;-82
2021/10/03 04:30:43;;;;;;;1.50;1.40;;;19.40;63.10;;;;;;3122050;28;20422;-82
2021/10/03 04:32:15;;;;;;;1.40;1.27;;;19.40;63.80;;;;;;3123065;28;20052;-82
2021/10/03 04:33:47;;;;;;;1.50;1.40;;;19.40;63.20;;;;;;3122922;28;20053;-83
2021/10/03 04:35:18;;;;;;;1.60;1.50;;;19.40;63.20;;;;;;3124173;28;20049;-82
2021/10/03 04:36:51;;;;;;;1.83;1.30;;;19.40;63.10;;;;;;3135564;28;20071;-83
2021/10/03 04:38:22;;;;;;;1.38;1.27;;;19.40;63.10;;;;;;3147739;28;20052;-82
2021/10/03 04:39:54;;;;;;;1.90;1.60;;;19.40;63.10;;;;;;3131619;28;20052;-83
2021/10/03 04:41:27;;;;;;;1.40;1.30;;;19.40;63.10;;;;;;3135229;28;20045;-83
2021/10/03 04:42:59;;;;;;;1.50;1.40;;;19.40;63.10;;;;;;3135258;28;20057;-82
2021/10/03 04:44:30;;;;;;;1.35;1.25;;;19.40;63.10;;;;;;3134857;28;20041;-83
2021/10/03 04:46:01;;;;;;;1.30;1.20;;;19.40;63.10;;;;;;3135090;28;20266;-82
2021/10/03 04:47:33;;;;;;;1.40;1.30;;;19.40;63.10;;;;;;3134908;28;20091;-83
2021/10/03 04:49:04;;;;;;;1.60;1.40;;;19.40;63.20;;;;;;3134814;28;20049;-82
2021/10/03 04:50:36;;;;;;;1.35;1.17;;;19.40;63.10;;;;;;3135259;28;20048;-83
2021/10/03 04:52:07;;;;;;;2.30;1.52;;;19.40;63.00;;;;;;3134798;28;20060;-83
2021/10/03 04:53:39;;;;;;;1.55;1.45;;;19.40;63.10;;;;;;3134528;28;20049;-82
2021/10/03 04:55:11;;;;;;;1.40;1.30;;;19.40;63.10;;;;;;3134911;28;20060;-83
2021/10/03 04:56:45;;;;;;;1.55;1.45;;;19.40;63.20;;;;;;3135382;28;20079;-82
2021/10/03 04:58:16;;;;;;;1.92;1.30;;;19.40;63.10;;;;;;3134837;28;20062;-82
2021/10/03 04:59:48;;;;;;;1.30;1.20;;;19.40;63.10;;;;;;3134225;28;20568;-82
2021/10/03 05:01:20;;;;;;;1.40;1.30;;;19.40;63.10;;;;;;3133984;28;20045;-83
2021/10/03 05:02:51;;;;;;;1.40;1.30;;;19.40;63.10;;;;;;3135294;28;20638;-82
2021/10/03 05:04:22;;;;;;;1.60;1.50;;;19.40;63.10;;;;;;3134491;28;20052;-82
2021/10/03 05:05:54;;;;;;;1.40;1.30;;;19.40;63.10;;;;;;3134838;28;20056;-82
2021/10/03 05:07:26;;;;;;;2.13;1.30;;;19.40;63.20;;;;;;3134812;28;20099;-82
2021/10/03 05:08:57;;;;;;;1.45;1.35;;;19.40;63.10;;;;;;3134510;28;20053;-82
2021/10/03 05:10:29;;;;;;;1.58;1.48;;;19.40;63.00;;;;;;3134336;28;20045;-82
2021/10/03 05:12:02;;;;;;;1.38;1.17;;;19.40;63.10;;;;;;3135851;28;20053;-82
2021/10/03 05:13:34;;;;;;;1.40;1.30;;;19.40;63.10;;;;;;3147849;28;20064;-82
2021/10/03 05:15:07;;;;;;;1.42;1.33;;;19.40;63.10;;;;;;3145704;28;20209;-82
2021/10/03 05:16:38;;;;;;;1.65;1.45;;;19.40;63.10;;;;;;3147166;28;20044;-82
2021/10/03 05:18:10;;;;;;;1.50;1.40;;;19.50;63.10;;;;;;3140366;28;20518;-82
2021/10/03 05:19:42;;;;;;;1.52;1.35;;;19.40;63.00;;;;;;3121828;28;20045;-82
2021/10/03 05:21:14;;;;;;;1.60;1.50;;;19.40;63.10;;;;;;3122645;28;20045;-82
2021/10/03 05:22:45;;;;;;;1.30;1.20;;;19.40;63.00;;;;;;3122185;28;20053;-82
2021/10/03 05:24:17;;;;;;;1.50;1.40;;;19.40;63.00;;;;;;3121889;28;20056;-83
2021/10/03 05:25:49;;;;;;;1.60;1.50;;;19.40;63.00;;;;;;3122970;28;20054;-82
2021/10/03 05:27:22;;;;;;;1.60;1.50;;;19.50;63.10;;;;;;3122604;28;20407;-82
2021/10/03 05:28:54;;;;;;;1.42;1.33;;;19.40;63.00;;;;;;3122009;28;20061;-82
2021/10/03 05:30:25;;;;;;;1.58;1.48;;;19.50;63.10;;;;;;3121311;28;20528;-82
2021/10/03 05:31:56;;;;;;;1.63;1.42;;;19.40;63.00;;;;;;3122583;28;20057;-82
2021/10/03 05:33:29;;;;;;;1.58;1.40;;;19.50;63.10;;;;;;3122416;28;20052;-83
2021/10/03 05:35:00;;;;;;;1.90;1.67;;;19.50;63.10;;;;;;3121459;28;20410;-83
2021/10/03 05:36:32;;;;;;;1.50;1.40;;;19.50;63.10;;;;;;3133801;28;20265;-82
2021/10/03 05:38:04;;;;;;;1.92;1.50;;;19.50;63.00;;;;;;3144485;28;20056;-83
2021/10/03 05:39:36;;;;;;;1.33;1.23;;;19.40;63.00;;;;;;3133468;28;20506;-82
2021/10/03 05:41:07;;;;;;;1.27;1.17;;;19.40;63.00;;;;;;3134447;28;20067;-82
2021/10/03 05:42:41;;;;;;;1.40;1.30;;;19.40;63.00;;;;;;3135077;28;20045;-83
2021/10/03 05:44:12;;;;;;;1.58;1.40;;;19.40;63.10;;;;;;3134273;28;20053;-82
2021/10/03 05:45:44;;;;;;;1.58;1.42;;;19.40;63.10;;;;;;3133911;28;20037;-83
2021/10/03 05:47:16;;;;;;;1.40;1.30;;;19.50;63.20;;;;;;3134528;28;20075;-82
2021/10/03 05:48:47;;;;;;;1.30;1.20;;;19.40;63.20;;;;;;3134529;28;20049;-82
2021/10/03 05:50:19;;;;;;;1.40;1.30;;;19.40;63.20;;;;;;3134131;28;20075;-83
2021/10/03 05:51:51;;;;;;;1.42;1.33;;;19.40;63.10;;;;;;3134446;28;20049;-83
2021/10/03 05:53:23;;;;;;;1.30;1.20;;;19.40;63.20;;;;;;3134180;28;20049;-83
2021/10/03 05:54:54;;;;;;;1.38;1.27;;;19.40;63.10;;;;;;3134327;28;20048;-82
2021/10/03 05:56:26;;;;;;;1.48;1.38;;;19.40;63.10;;;;;;3134498;28;20486;-82
2021/10/03 05:57:59;;;;;;;1.75;1.40;;;19.40;63.10;;;;;;3134382;28;20083;-83
2021/10/03 05:59:31;;;;;;;;;;;19.50;63.20;;;;;;3134224;28;20045;-82
2021/10/03 06:01:02;;;;;;;1.67;1.55;;;19.40;63.10;;;;;;3133960;28;19925;-83
2021/10/03 06:02:34;;;;;;;1.50;1.40;;;19.50;63.20;;;;;;3134092;28;20482;-83
2021/10/03 06:04:06;;;;;;;1.40;1.30;;;19.50;63.10;;;;;;3133986;28;20049;-83
2021/10/03 06:05:37;;;;;;;2.05;1.23;;;19.40;63.00;;;;;;3134673;28;20114;-82
2021/10/03 06:07:09;;;;;;;1.45;1.35;;;19.50;63.10;;;;;;3134173;28;20048;-83
2021/10/03 06:08:41;;;;;;;1.40;1.30;;;19.40;63.10;;;;;;3133823;28;20049;-82
2021/10/03 06:10:13;;;;;;;1.50;1.40;;;19.50;63.20;;;;;;3134353;28;20140;-83
2021/10/03 06:11:44;;;;;;;1.50;1.30;;;19.50;63.20;;;;;;3134534;28;20060;-82
2021/10/03 06:13:18;;;;;;;1.67;1.40;;;19.40;63.10;;;;;;3146209;28;20089;-82
2021/10/03 06:14:49;;;;;;;1.40;1.23;;;19.50;63.20;;;;;;3145938;28;20052;-84
2021/10/03 06:16:21;;;;;;;1.60;1.48;;;19.40;63.20;;;;;;3145454;28;20048;-82
2021/10/03 06:17:53;;;;;;;1.50;1.40;;;19.40;63.20;;;;;;3145677;28;20467;-83
2021/10/03 06:19:25;;;;;;;1.60;1.50;;;19.40;63.20;;;;;;3133267;28;20060;-84
2021/10/03 06:20:57;;;;;;;1.50;1.40;;;19.40;63.20;;;;;;3133772;28;20049;-83
2021/10/03 06:22:28;;;;;;;1.48;1.38;;;19.40;63.20;;;;;;3134015;28;20049;-83
2021/10/03 06:24:00;;;;;;;1.55;1.35;;;19.50;63.20;;;;;;3133730;28;20497;-84
2021/10/03 06:25:32;;;;;;;1.48;1.38;;;19.40;63.10;;;;;;3134130;28;20460;-84
2021/10/03 06:27:04;;;;;;;1.40;1.30;;;19.50;63.10;;;;;;3134072;28;20044;-84
2021/10/03 06:28:37;;;;;;;1.58;1.48;;;19.50;63.10;;;;;;3134249;28;20551;-83
2021/10/03 06:30:09;;;;;;;;;;;19.50;63.20;;;;;;3133032;28;20068;-83
2021/10/03 06:31:41;;;;;;;1.50;1.35;;;19.50;63.10;;;;;;3133855;28;20274;-83
2021/10/03 06:33:13;;;;;;;1.33;1.23;;;19.40;63.20;;;;;;3133899;28;20053;-84
2021/10/03 06:34:44;;;;;;;1.45;1.35;;;19.50;63.20;;;;;;3133694;28;20053;-83
2021/10/03 06:36:16;;;;;;;1.60;1.50;;;19.40;63.20;;;;;;3133857;28;20402;-83
2021/10/03 06:37:48;;;;;;;1.67;1.58;;;19.50;63.20;;;;;;3141639;28;20048;-83
2021/10/03 06:39:20;;;;;;;1.45;1.35;;;19.50;63.20;;;;;;3134771;28;20049;-83
2021/10/03 06:40:51;;;;;;;1.58;1.48;;;19.50;63.20;;;;;;3134153;28;20119;-83
2021/10/03 06:42:23;;;;;;;1.50;1.40;;;19.50;63.10;;;;;;3134001;28;20060;-84
2021/10/03 06:43:56;;;;;;;1.45;1.35;;;19.50;63.00;;;;;;3133392;28;20120;-84
2021/10/03 06:45:28;;;;;;;1.38;1.27;;;19.50;63.10;;;;;;3132766;28;20494;-83
2021/10/03 06:47:00;;;;;;;1.50;1.40;;;19.50;63.00;;;;;;3133797;28;20094;-83
2021/10/03 06:48:32;;;;;;;1.50;1.40;;;19.50;63.10;;;;;;3134514;28;20133;-83
2021/10/03 06:50:05;;;;;;;1.48;1.23;;;19.50;63.00;;;;;;3134225;28;20053;-83
2021/10/03 06:51:37;;;;;;;1.35;1.25;;;19.50;63.00;;;;;;3135210;28;20087;-84
2021/10/03 06:53:08;;;;;;;1.40;1.30;;;19.50;63.00;;;;;;3134892;28;20193;-84
2021/10/03 06:54:40;;;;;;;1.30;1.20;;;19.50;63.10;;;;;;3134322;28;20494;-84
2021/10/03 06:56:12;;;;;;;1.30;1.20;;;19.50;63.10;;;;;;3134756;28;20052;-83
2021/10/03 06:57:44;;;;;;;1.30;1.20;;;19.50;63.10;;;;;;3135113;28;20056;-83
2021/10/03 06:59:18;;;;;;;1.42;1.30;;;19.50;63.10;;;;;;3134435;28;20052;-83
2021/10/03 07:00:49;;;;;;;1.50;1.40;;;19.50;63.10;;;;;;3133557;28;20097;-83
2021/10/03 07:02:22;;;;;;;1.60;1.50;;;19.50;63.70;;;;;;3134604;28;20056;-84
2021/10/03 07:03:57;;;;;;;1.50;1.40;;;19.60;63.20;;;;;;3133913;28;20052;-84
2021/10/03 07:05:28;;;;;;;1.50;1.40;;;19.60;63.20;;;;;;3134602;28;20099;-83
2021/10/03 07:07:00;;;;;;;1.63;1.52;;;19.50;63.30;;;;;;3133848;28;20476;-85
2021/10/03 07:08:33;;;;;;;1.55;1.23;;;19.50;63.10;;;;;;3134207;28;20060;-84
2021/10/03 07:10:06;;;;;;;1.50;1.30;;;19.50;63.20;;;;;;3131566;28;20052;-84
2021/10/03 07:11:38;;;;;;;1.50;1.40;;;19.50;63.20;;;;;;3135096;28;20144;-84
2021/10/03 07:13:11;;;;;;;1.50;1.40;;;19.50;63.30;;;;;;3144546;28;20091;-83
2021/10/03 07:14:44;;;;;;;1.40;1.27;;;19.50;63.20;;;;;;3145422;28;20052;-83
2021/10/03 07:16:17;;;;;;;1.27;1.17;;;19.50;63.30;;;;;;3144810;28;20052;-83
2021/10/03 07:17:50;;;;;;;1.40;1.30;;;19.50;63.30;;;;;;3145267;28;20170;-83
2021/10/03 07:19:22;;;;;;;1.63;1.52;;;19.50;63.30;;;;;;3120593;28;20136;-83
2021/10/03 07:20:53;;;;;;;1.90;1.70;;;19.50;63.30;;;;;;3121147;28;20107;-83
2021/10/03 07:22:25;;;;;;;1.30;1.10;;;19.50;63.10;;;;;;3121361;28;20053;-83
2021/10/03 07:23:57;;;;;;;1.30;1.20;;;19.60;63.20;;;;;;3120929;28;20057;-84
2021/10/03 07:25:29;;;;;;;1.40;1.30;;;19.60;63.30;;;;;;3121303;28;20046;-83
2021/10/03 07:27:00;;;;;;;1.48;1.38;;;19.50;63.30;;;;;;3121625;28;20057;-83
2021/10/03 07:28:32;;;;;;;1.70;1.60;;;19.50;63.50;;;;;;3121315;28;20053;-84
2021/10/03 07:30:06;;;;;;;1.77;1.48;;;19.50;63.50;;;;;;3120039;28;20057;-83
2021/10/03 07:31:38;;;;;;;1.42;1.33;;;19.50;63.50;;;;;;3120826;28;20045;-83
2021/10/03 07:33:10;;;;;;;1.73;1.50;;;19.50;63.50;;;;;;3121823;28;20119;-83
2021/10/03 07:34:42;;;;;;;1.48;1.38;;;19.50;63.50;;;;;;3119667;28;20053;-83
2021/10/03 07:36:16;;;;;;;1.60;1.48;;;19.50;63.50;;;;;;3129935;28;20486;-83
2021/10/03 07:37:49;;;;;;;1.75;1.40;;;19.50;63.50;;;;;;3141327;28;20048;-83
2021/10/03 07:39:20;;;;;;;1.40;1.30;;;19.50;63.70;;;;;;3134937;28;20080;-83
2021/10/03 07:40:52;;;;;;;1.52;1.42;;;19.50;63.70;;;;;;3132996;28;20171;-84
2021/10/03 07:42:24;;;;;;;1.50;1.40;;;19.50;63.60;;;;;;3133354;28;20099;-84
2021/10/03 07:43:56;;;;;;;1.58;1.48;;;19.50;63.60;;;;;;3133015;28;20057;-84
2021/10/03 07:45:29;;;;;;;1.30;1.20;;;19.50;63.50;;;;;;3132834;28;20095;-83
2021/10/03 07:47:01;;;;;;;1.65;1.45;;;19.60;63.50;;;;;;3133509;28;20049;-84
2021/10/03 07:48:32;;;;;;;1.50;1.40;;;19.60;63.60;;;;;;3133679;28;20056;-83
2021/10/03 07:50:05;;;;;;;1.45;1.35;;;19.50;63.50;;;;;;3132397;28;20045;-84
2021/10/03 07:51:37;;;;;;;1.60;1.50;;;19.50;63.50;;;;;;3133897;28;20049;-83
2021/10/03 07:53:09;;;;;;;1.50;1.40;;;19.50;63.50;;;;;;3133382;28;20057;-83
2021/10/03 07:54:40;;;;;;;1.60;1.50;;;19.50;63.60;;;;;;3132835;28;20052;-84
2021/10/03 07:56:18;;;;;;;1.50;1.40;;;19.50;63.70;;;;;;3133580;28;20413;-84
2021/10/03 07:57:51;;;;;;;1.50;1.40;;;19.50;63.70;;;;;;3135465;28;20075;-84
2021/10/03 07:59:23;;;;;;;1.65;1.55;;;19.50;63.70;;;;;;3134577;28;20053;-84